sensor_id;sensor_type;location;lat;lon;timestamp;P1;durP1;ratioP1;P2;durP2;ratioP2
76540;SDS011;65385;55.772;37.658;2023-04-06T00:00:03;7.22;;;4.13;;
76540;SDS011;65385;55.772;37.658;2023-04-06T00:01:10;9.45;;;5.57;;
76540;SDS011;65385;55.772;37.658;2023-04-06T00:02:10;10.88;;;5.20;;
76540;SDS011;65385;55.772;37.658;2023-04-06T00:03:11;11.73;;;5.95;;
76540;SDS011;65385;55.772;37.658;2023-04-06T00:04:11;10.38;;;5.38;;
76540;SDS011;65385;55.772;37.658;2023-04-06T00:05:12;11.70;;;4.93;;
76540;SDS011;65385;55.772;37.658;2023-04-06T00:06:12;10.32;;;5.55;;
76540;SDS011;65385;55.772;37.658;2023-04-06T00:07:13;12.88;;;5.95;;
76540;SDS011;65385;55.772;37.658;2023-04-06T00:08:13;12.38;;;5.93;;
76540;SDS011;65385;55.772;37.658;2023-04-06T00:09:14;12.63;;;5.47;;
76540;SDS011;65385;55.772;37.658;2023-04-06T00:10:15;11.65;;;5.00;;
76540;SDS011;65385;55.772;37.658;2023-04-06T00:11:16;11.65;;;5.45;;
76540;SDS011;65385;55.772;37.658;2023-04-06T00:12:17;10.82;;;4.88;;
76540;SDS011;65385;55.772;37.658;2023-04-06T00:13:17;10.55;;;5.68;;
76540;SDS011;65385;55.772;37.658;2023-04-06T00:14:18;10.13;;;5.50;;
76540;SDS011;65385;55.772;37.658;2023-04-06T00:15:19;10.85;;;5.45;;
76540;SDS011;65385;55.772;37.658;2023-04-06T00:16:20;11.25;;;5.75;;
76540;SDS011;65385;55.772;37.658;2023-04-06T00:17:20;11.52;;;5.80;;
76540;SDS011;65385;55.772;37.658;2023-04-06T00:18:22;10.68;;;5.22;;
76540;SDS011;65385;55.772;37.658;2023-04-06T00:19:22;12.35;;;4.50;;
76540;SDS011;65385;55.772;37.658;2023-04-06T00:20:23;11.07;;;5.13;;
76540;SDS011;65385;55.772;37.658;2023-04-06T00:21:23;12.40;;;5.07;;
76540;SDS011;65385;55.772;37.658;2023-04-06T00:22:25;12.30;;;5.13;;
76540;SDS011;65385;55.772;37.658;2023-04-06T00:23:26;13.80;;;5.53;;
76540;SDS011;65385;55.772;37.658;2023-04-06T00:24:26;8.57;;;4.95;;
76540;SDS011;65385;55.772;37.658;2023-04-06T00:25:27;12.15;;;6.22;;
76540;SDS011;65385;55.772;37.658;2023-04-06T00:26:27;9.32;;;4.97;;
76540;SDS011;65385;55.772;37.658;2023-04-06T00:27:29;9.65;;;4.97;;
76540;SDS011;65385;55.772;37.658;2023-04-06T00:28:29;9.23;;;5.05;;
76540;SDS011;65385;55.772;37.658;2023-04-06T00:29:30;9.80;;;5.18;;
76540;SDS011;65385;55.772;37.658;2023-04-06T00:30:30;12.02;;;5.55;;
76540;SDS011;65385;55.772;37.658;2023-04-06T00:31:31;18.35;;;6.82;;
76540;SDS011;65385;55.772;37.658;2023-04-06T00:32:31;11.48;;;5.47;;
76540;SDS011;65385;55.772;37.658;2023-04-06T00:33:32;11.68;;;6.72;;
76540;SDS011;65385;55.772;37.658;2023-04-06T00:34:33;11.18;;;5.20;;
76540;SDS011;65385;55.772;37.658;2023-04-06T00:35:33;15.20;;;5.72;;
76540;SDS011;65385;55.772;37.658;2023-04-06T00:36:34;10.23;;;4.97;;
76540;SDS011;65385;55.772;37.658;2023-04-06T00:37:35;10.63;;;5.43;;
76540;SDS011;65385;55.772;37.658;2023-04-06T00:38:36;10.70;;;5.30;;
76540;SDS011;65385;55.772;37.658;2023-04-06T00:39:36;9.80;;;5.03;;
76540;SDS011;65385;55.772;37.658;2023-04-06T00:40:37;10.48;;;5.05;;
76540;SDS011;65385;55.772;37.658;2023-04-06T00:41:40;10.18;;;5.45;;
76540;SDS011;65385;55.772;37.658;2023-04-06T00:42:49;11.65;;;7.03;;
76540;SDS011;65385;55.772;37.658;2023-04-06T00:43:50;10.48;;;5.13;;
76540;SDS011;65385;55.772;37.658;2023-04-06T00:44:54;9.75;;;5.38;;
76540;SDS011;65385;55.772;37.658;2023-04-06T00:45:56;11.57;;;5.97;;
76540;SDS011;65385;55.772;37.658;2023-04-06T00:46:57;12.70;;;6.22;;
76540;SDS011;65385;55.772;37.658;2023-04-06T00:47:57;11.95;;;5.85;;
76540;SDS011;65385;55.772;37.658;2023-04-06T00:48:58;10.25;;;5.22;;
76540;SDS011;65385;55.772;37.658;2023-04-06T00:49:58;13.13;;;6.68;;
76540;SDS011;65385;55.772;37.658;2023-04-06T00:51:00;11.43;;;5.45;;
76540;SDS011;65385;55.772;37.658;2023-04-06T00:52:01;15.07;;;5.53;;
76540;SDS011;65385;55.772;37.658;2023-04-06T00:53:02;11.82;;;5.38;;
76540;SDS011;65385;55.772;37.658;2023-04-06T00:54:03;11.27;;;5.15;;
76540;SDS011;65385;55.772;37.658;2023-04-06T00:55:06;11.80;;;5.97;;
76540;SDS011;65385;55.772;37.658;2023-04-06T00:56:11;11.20;;;5.55;;
76540;SDS011;65385;55.772;37.658;2023-04-06T00:57:22;11.27;;;5.57;;
76540;SDS011;65385;55.772;37.658;2023-04-06T00:58:28;15.57;;;7.15;;
76540;SDS011;65385;55.772;37.658;2023-04-06T00:59:36;12.60;;;6.13;;
76540;SDS011;65385;55.772;37.658;2023-04-06T01:00:40;12.93;;;5.82;;
76540;SDS011;65385;55.772;37.658;2023-04-06T01:01:44;11.90;;;5.32;;
76540;SDS011;65385;55.772;37.658;2023-04-06T01:03:02;10.65;;;5.25;;
76540;SDS011;65385;55.772;37.658;2023-04-06T01:04:11;11.40;;;5.57;;
76540;SDS011;65385;55.772;37.658;2023-04-06T01:05:15;11.35;;;5.55;;
76540;SDS011;65385;55.772;37.658;2023-04-06T01:06:24;14.55;;;6.03;;
76540;SDS011;65385;55.772;37.658;2023-04-06T01:07:34;9.20;;;5.10;;
76540;SDS011;65385;55.772;37.658;2023-04-06T01:08:43;12.15;;;6.43;;
76540;SDS011;65385;55.772;37.658;2023-04-06T01:09:50;10.48;;;5.88;;
76540;SDS011;65385;55.772;37.658;2023-04-06T01:10:58;10.93;;;6.47;;
76540;SDS011;65385;55.772;37.658;2023-04-06T01:12:02;12.57;;;6.32;;
76540;SDS011;65385;55.772;37.658;2023-04-06T01:13:05;12.38;;;6.10;;
76540;SDS011;65385;55.772;37.658;2023-04-06T01:14:28;20.13;;;7.70;;
76540;SDS011;65385;55.772;37.658;2023-04-06T01:15:33;13.07;;;6.32;;
76540;SDS011;65385;55.772;37.658;2023-04-06T01:16:36;11.88;;;6.18;;
76540;SDS011;65385;55.772;37.658;2023-04-06T01:17:43;14.25;;;6.70;;
76540;SDS011;65385;55.772;37.658;2023-04-06T01:18:48;11.50;;;6.38;;
76540;SDS011;65385;55.772;37.658;2023-04-06T01:19:52;12.63;;;6.90;;
76540;SDS011;65385;55.772;37.658;2023-04-06T01:21:00;11.80;;;5.53;;
76540;SDS011;65385;55.772;37.658;2023-04-06T01:22:02;10.52;;;4.95;;
76540;SDS011;65385;55.772;37.658;2023-04-06T01:23:05;13.63;;;6.20;;
76540;SDS011;65385;55.772;37.658;2023-04-06T01:24:06;11.13;;;5.88;;
76540;SDS011;65385;55.772;37.658;2023-04-06T01:25:21;11.05;;;5.55;;
76540;SDS011;65385;55.772;37.658;2023-04-06T01:26:33;9.07;;;4.43;;
76540;SDS011;65385;55.772;37.658;2023-04-06T01:27:35;10.45;;;5.38;;
76540;SDS011;65385;55.772;37.658;2023-04-06T01:28:35;10.27;;;5.90;;
76540;SDS011;65385;55.772;37.658;2023-04-06T01:29:43;10.70;;;5.65;;
76540;SDS011;65385;55.772;37.658;2023-04-06T01:30:48;11.70;;;5.03;;
76540;SDS011;65385;55.772;37.658;2023-04-06T01:32:01;12.55;;;6.63;;
76540;SDS011;65385;55.772;37.658;2023-04-06T01:33:03;12.35;;;6.25;;
76540;SDS011;65385;55.772;37.658;2023-04-06T01:34:26;10.13;;;5.85;;
76540;SDS011;65385;55.772;37.658;2023-04-06T01:35:29;12.52;;;5.88;;
76540;SDS011;65385;55.772;37.658;2023-04-06T01:36:46;13.98;;;6.20;;
76540;SDS011;65385;55.772;37.658;2023-04-06T01:37:58;11.23;;;5.80;;
76540;SDS011;65385;55.772;37.658;2023-04-06T01:39:04;8.57;;;4.13;;
76540;SDS011;65385;55.772;37.658;2023-04-06T01:40:09;13.60;;;6.35;;
76540;SDS011;65385;55.772;37.658;2023-04-06T01:41:18;11.77;;;6.22;;
76540;SDS011;65385;55.772;37.658;2023-04-06T01:42:25;12.68;;;6.25;;
76540;SDS011;65385;55.772;37.658;2023-04-06T01:43:26;11.35;;;6.00;;
76540;SDS011;65385;55.772;37.658;2023-04-06T01:44:42;10.70;;;5.18;;
76540;SDS011;65385;55.772;37.658;2023-04-06T01:45:47;10.02;;;4.63;;
76540;SDS011;65385;55.772;37.658;2023-04-06T01:46:52;17.63;;;7.03;;
76540;SDS011;65385;55.772;37.658;2023-04-06T01:47:53;13.18;;;6.22;;
76540;SDS011;65385;55.772;37.658;2023-04-06T01:48:56;10.77;;;6.00;;
76540;SDS011;65385;55.772;37.658;2023-04-06T01:50:05;10.00;;;5.45;;
76540;SDS011;65385;55.772;37.658;2023-04-06T01:51:11;19.73;;;7.43;;
76540;SDS011;65385;55.772;37.658;2023-04-06T01:52:19;13.23;;;7.28;;
76540;SDS011;65385;55.772;37.658;2023-04-06T01:53:25;13.00;;;7.18;;
76540;SDS011;65385;55.772;37.658;2023-04-06T01:54:31;11.23;;;6.22;;
76540;SDS011;65385;55.772;37.658;2023-04-06T01:55:43;15.38;;;5.95;;
76540;SDS011;65385;55.772;37.658;2023-04-06T01:57:10;13.70;;;7.47;;
76540;SDS011;65385;55.772;37.658;2023-04-06T01:58:37;11.18;;;6.60;;
76540;SDS011;65385;55.772;37.658;2023-04-06T01:59:38;9.63;;;4.90;;
76540;SDS011;65385;55.772;37.658;2023-04-06T02:00:44;15.73;;;7.13;;
76540;SDS011;65385;55.772;37.658;2023-04-06T02:01:45;9.07;;;5.38;;
76540;SDS011;65385;55.772;37.658;2023-04-06T02:02:46;12.65;;;6.93;;
76540;SDS011;65385;55.772;37.658;2023-04-06T02:03:53;9.65;;;5.32;;
76540;SDS011;65385;55.772;37.658;2023-04-06T02:04:53;13.68;;;6.20;;
76540;SDS011;65385;55.772;37.658;2023-04-06T02:05:54;11.63;;;5.88;;
76540;SDS011;65385;55.772;37.658;2023-04-06T02:07:03;10.80;;;6.22;;
76540;SDS011;65385;55.772;37.658;2023-04-06T02:08:04;13.30;;;6.03;;
76540;SDS011;65385;55.772;37.658;2023-04-06T02:09:08;12.50;;;6.68;;
76540;SDS011;65385;55.772;37.658;2023-04-06T02:10:12;13.82;;;6.13;;
76540;SDS011;65385;55.772;37.658;2023-04-06T02:11:16;13.00;;;7.53;;
76540;SDS011;65385;55.772;37.658;2023-04-06T02:13:22;6.45;;;4.05;;
76540;SDS011;65385;55.772;37.658;2023-04-06T02:14:26;9.27;;;4.60;;
76540;SDS011;65385;55.772;37.658;2023-04-06T02:15:29;11.38;;;6.32;;
76540;SDS011;65385;55.772;37.658;2023-04-06T02:16:30;10.85;;;5.38;;
76540;SDS011;65385;55.772;37.658;2023-04-06T02:17:30;9.88;;;5.30;;
76540;SDS011;65385;55.772;37.658;2023-04-06T02:18:31;13.85;;;6.43;;
76540;SDS011;65385;55.772;37.658;2023-04-06T02:19:31;8.55;;;5.47;;
76540;SDS011;65385;55.772;37.658;2023-04-06T02:20:32;10.75;;;5.68;;
76540;SDS011;65385;55.772;37.658;2023-04-06T02:21:32;16.45;;;6.97;;
76540;SDS011;65385;55.772;37.658;2023-04-06T02:22:33;12.52;;;6.57;;
76540;SDS011;65385;55.772;37.658;2023-04-06T02:23:35;14.50;;;5.82;;
76540;SDS011;65385;55.772;37.658;2023-04-06T02:24:35;13.52;;;6.15;;
76540;SDS011;65385;55.772;37.658;2023-04-06T02:25:37;14.15;;;6.22;;
76540;SDS011;65385;55.772;37.658;2023-04-06T02:26:37;10.07;;;5.88;;
76540;SDS011;65385;55.772;37.658;2023-04-06T02:27:38;10.90;;;5.78;;
76540;SDS011;65385;55.772;37.658;2023-04-06T02:28:39;7.95;;;4.60;;
76540;SDS011;65385;55.772;37.658;2023-04-06T02:29:40;11.68;;;5.53;;
76540;SDS011;65385;55.772;37.658;2023-04-06T02:30:40;11.95;;;5.95;;
76540;SDS011;65385;55.772;37.658;2023-04-06T02:31:41;10.93;;;5.70;;
76540;SDS011;65385;55.772;37.658;2023-04-06T02:32:42;13.20;;;5.80;;
76540;SDS011;65385;55.772;37.658;2023-04-06T02:33:43;11.00;;;6.07;;
76540;SDS011;65385;55.772;37.658;2023-04-06T02:34:44;12.55;;;6.10;;
76540;SDS011;65385;55.772;37.658;2023-04-06T02:35:45;14.00;;;6.63;;
76540;SDS011;65385;55.772;37.658;2023-04-06T02:36:46;15.18;;;6.28;;
76540;SDS011;65385;55.772;37.658;2023-04-06T02:37:48;13.00;;;5.70;;
76540;SDS011;65385;55.772;37.658;2023-04-06T02:38:48;12.32;;;5.90;;
76540;SDS011;65385;55.772;37.658;2023-04-06T02:39:48;12.13;;;6.07;;
76540;SDS011;65385;55.772;37.658;2023-04-06T02:40:50;10.93;;;6.20;;
76540;SDS011;65385;55.772;37.658;2023-04-06T02:41:56;10.52;;;4.80;;
76540;SDS011;65385;55.772;37.658;2023-04-06T02:42:59;9.85;;;4.88;;
76540;SDS011;65385;55.772;37.658;2023-04-06T02:44:07;21.65;;;6.60;;
76540;SDS011;65385;55.772;37.658;2023-04-06T02:45:13;13.05;;;5.63;;
76540;SDS011;65385;55.772;37.658;2023-04-06T02:46:17;10.88;;;5.90;;
76540;SDS011;65385;55.772;37.658;2023-04-06T02:47:18;12.57;;;6.03;;
76540;SDS011;65385;55.772;37.658;2023-04-06T02:48:22;12.30;;;5.82;;
76540;SDS011;65385;55.772;37.658;2023-04-06T02:49:22;10.13;;;4.70;;
76540;SDS011;65385;55.772;37.658;2023-04-06T02:50:24;13.80;;;5.22;;
76540;SDS011;65385;55.772;37.658;2023-04-06T02:51:31;13.02;;;6.47;;
76540;SDS011;65385;55.772;37.658;2023-04-06T02:52:43;12.90;;;5.40;;
76540;SDS011;65385;55.772;37.658;2023-04-06T02:53:45;9.95;;;5.43;;
76540;SDS011;65385;55.772;37.658;2023-04-06T02:54:46;8.50;;;4.95;;
76540;SDS011;65385;55.772;37.658;2023-04-06T02:55:47;9.18;;;5.35;;
76540;SDS011;65385;55.772;37.658;2023-04-06T02:56:47;10.43;;;5.45;;
76540;SDS011;65385;55.772;37.658;2023-04-06T02:57:48;11.93;;;5.80;;
76540;SDS011;65385;55.772;37.658;2023-04-06T02:58:49;10.35;;;5.75;;
76540;SDS011;65385;55.772;37.658;2023-04-06T02:59:50;9.77;;;5.05;;
76540;SDS011;65385;55.772;37.658;2023-04-06T03:00:56;11.55;;;6.00;;
76540;SDS011;65385;55.772;37.658;2023-04-06T03:01:56;11.18;;;4.60;;
76540;SDS011;65385;55.772;37.658;2023-04-06T03:02:57;8.32;;;4.43;;
76540;SDS011;65385;55.772;37.658;2023-04-06T03:03:58;14.18;;;6.30;;
76540;SDS011;65385;55.772;37.658;2023-04-06T03:05:01;11.27;;;5.80;;
76540;SDS011;65385;55.772;37.658;2023-04-06T03:06:08;14.45;;;6.60;;
76540;SDS011;65385;55.772;37.658;2023-04-06T03:07:08;11.35;;;5.82;;
76540;SDS011;65385;55.772;37.658;2023-04-06T03:08:12;11.38;;;5.38;;
76540;SDS011;65385;55.772;37.658;2023-04-06T03:09:17;11.90;;;5.15;;
76540;SDS011;65385;55.772;37.658;2023-04-06T03:10:19;8.27;;;5.72;;
76540;SDS011;65385;55.772;37.658;2023-04-06T03:11:21;8.63;;;5.40;;
76540;SDS011;65385;55.772;37.658;2023-04-06T03:12:24;9.77;;;5.22;;
76540;SDS011;65385;55.772;37.658;2023-04-06T03:13:44;7.38;;;4.13;;
76540;SDS011;65385;55.772;37.658;2023-04-06T03:14:45;8.88;;;5.25;;
76540;SDS011;65385;55.772;37.658;2023-04-06T03:15:46;10.68;;;5.82;;
76540;SDS011;65385;55.772;37.658;2023-04-06T03:16:50;10.18;;;5.50;;
76540;SDS011;65385;55.772;37.658;2023-04-06T03:17:54;11.63;;;5.32;;
76540;SDS011;65385;55.772;37.658;2023-04-06T03:19:08;11.10;;;6.13;;
76540;SDS011;65385;55.772;37.658;2023-04-06T03:20:09;14.60;;;5.45;;
76540;SDS011;65385;55.772;37.658;2023-04-06T03:21:10;10.82;;;5.32;;
76540;SDS011;65385;55.772;37.658;2023-04-06T03:22:19;8.27;;;5.05;;
76540;SDS011;65385;55.772;37.658;2023-04-06T03:23:21;10.20;;;5.68;;
76540;SDS011;65385;55.772;37.658;2023-04-06T03:25:27;9.27;;;4.80;;
76540;SDS011;65385;55.772;37.658;2023-04-06T03:26:32;11.43;;;5.68;;
76540;SDS011;65385;55.772;37.658;2023-04-06T03:27:37;8.93;;;5.35;;
76540;SDS011;65385;55.772;37.658;2023-04-06T03:28:39;10.88;;;5.22;;
76540;SDS011;65385;55.772;37.658;2023-04-06T03:29:41;11.60;;;5.38;;
76540;SDS011;65385;55.772;37.658;2023-04-06T03:30:45;11.63;;;4.95;;
76540;SDS011;65385;55.772;37.658;2023-04-06T03:31:47;11.40;;;5.35;;
76540;SDS011;65385;55.772;37.658;2023-04-06T03:32:58;11.95;;;5.32;;
76540;SDS011;65385;55.772;37.658;2023-04-06T03:34:01;14.07;;;6.35;;
76540;SDS011;65385;55.772;37.658;2023-04-06T03:35:05;12.45;;;5.07;;
76540;SDS011;65385;55.772;37.658;2023-04-06T03:36:06;12.23;;;5.50;;
76540;SDS011;65385;55.772;37.658;2023-04-06T03:37:11;12.45;;;5.93;;
76540;SDS011;65385;55.772;37.658;2023-04-06T03:38:19;11.13;;;4.45;;
76540;SDS011;65385;55.772;37.658;2023-04-06T03:39:19;9.88;;;4.82;;
76540;SDS011;65385;55.772;37.658;2023-04-06T03:40:20;9.85;;;4.95;;
76540;SDS011;65385;55.772;37.658;2023-04-06T03:41:21;7.90;;;4.90;;
76540;SDS011;65385;55.772;37.658;2023-04-06T03:42:36;10.52;;;5.05;;
76540;SDS011;65385;55.772;37.658;2023-04-06T03:43:43;14.88;;;5.88;;
76540;SDS011;65385;55.772;37.658;2023-04-06T03:44:43;8.10;;;4.93;;
76540;SDS011;65385;55.772;37.658;2023-04-06T03:45:44;8.75;;;5.30;;
76540;SDS011;65385;55.772;37.658;2023-04-06T03:46:45;10.52;;;4.90;;
76540;SDS011;65385;55.772;37.658;2023-04-06T03:47:46;11.00;;;6.00;;
76540;SDS011;65385;55.772;37.658;2023-04-06T03:48:48;10.70;;;5.50;;
76540;SDS011;65385;55.772;37.658;2023-04-06T03:49:50;14.07;;;5.82;;
76540;SDS011;65385;55.772;37.658;2023-04-06T03:50:50;11.18;;;5.25;;
76540;SDS011;65385;55.772;37.658;2023-04-06T03:51:52;8.43;;;4.95;;
76540;SDS011;65385;55.772;37.658;2023-04-06T03:52:53;6.80;;;4.07;;
76540;SDS011;65385;55.772;37.658;2023-04-06T03:53:53;8.65;;;4.93;;
76540;SDS011;65385;55.772;37.658;2023-04-06T03:54:54;11.77;;;6.05;;
76540;SDS011;65385;55.772;37.658;2023-04-06T03:55:54;8.93;;;4.70;;
76540;SDS011;65385;55.772;37.658;2023-04-06T03:56:55;10.25;;;5.93;;
76540;SDS011;65385;55.772;37.658;2023-04-06T03:57:55;9.57;;;5.30;;
76540;SDS011;65385;55.772;37.658;2023-04-06T03:58:56;11.88;;;4.75;;
76540;SDS011;65385;55.772;37.658;2023-04-06T03:59:56;11.38;;;4.80;;
76540;SDS011;65385;55.772;37.658;2023-04-06T04:01:00;9.48;;;4.47;;
76540;SDS011;65385;55.772;37.658;2023-04-06T04:02:01;11.65;;;4.93;;
76540;SDS011;65385;55.772;37.658;2023-04-06T04:03:01;8.95;;;4.80;;
76540;SDS011;65385;55.772;37.658;2023-04-06T04:04:02;8.52;;;4.88;;
76540;SDS011;65385;55.772;37.658;2023-04-06T04:05:05;7.22;;;4.57;;
76540;SDS011;65385;55.772;37.658;2023-04-06T04:06:06;9.55;;;4.82;;
76540;SDS011;65385;55.772;37.658;2023-04-06T04:07:06;7.25;;;4.30;;
76540;SDS011;65385;55.772;37.658;2023-04-06T04:08:08;9.90;;;4.28;;
76540;SDS011;65385;55.772;37.658;2023-04-06T04:09:08;8.23;;;4.78;;
76540;SDS011;65385;55.772;37.658;2023-04-06T04:10:09;7.85;;;4.35;;
76540;SDS011;65385;55.772;37.658;2023-04-06T04:11:09;7.97;;;3.95;;
76540;SDS011;65385;55.772;37.658;2023-04-06T04:12:10;9.18;;;4.55;;
76540;SDS011;65385;55.772;37.658;2023-04-06T04:13:11;7.60;;;3.72;;
76540;SDS011;65385;55.772;37.658;2023-04-06T04:14:11;9.00;;;4.18;;
76540;SDS011;65385;55.772;37.658;2023-04-06T04:15:12;7.88;;;4.30;;
76540;SDS011;65385;55.772;37.658;2023-04-06T04:16:12;7.07;;;4.40;;
76540;SDS011;65385;55.772;37.658;2023-04-06T04:17:13;8.98;;;4.35;;
76540;SDS011;65385;55.772;37.658;2023-04-06T04:18:13;7.57;;;4.00;;
76540;SDS011;65385;55.772;37.658;2023-04-06T04:19:14;12.13;;;5.05;;
76540;SDS011;65385;55.772;37.658;2023-04-06T04:20:15;12.52;;;4.20;;
76540;SDS011;65385;55.772;37.658;2023-04-06T04:21:16;10.77;;;4.40;;
76540;SDS011;65385;55.772;37.658;2023-04-06T04:22:17;6.53;;;4.10;;
76540;SDS011;65385;55.772;37.658;2023-04-06T04:23:18;10.52;;;4.63;;
76540;SDS011;65385;55.772;37.658;2023-04-06T04:24:18;10.50;;;4.18;;
76540;SDS011;65385;55.772;37.658;2023-04-06T04:25:19;5.75;;;3.47;;
76540;SDS011;65385;55.772;37.658;2023-04-06T04:26:22;7.13;;;4.75;;
76540;SDS011;65385;55.772;37.658;2023-04-06T04:27:23;10.48;;;4.25;;
76540;SDS011;65385;55.772;37.658;2023-04-06T04:28:25;7.90;;;3.90;;
76540;SDS011;65385;55.772;37.658;2023-04-06T04:29:28;6.53;;;3.25;;
76540;SDS011;65385;55.772;37.658;2023-04-06T04:30:33;9.07;;;4.25;;
76540;SDS011;65385;55.772;37.658;2023-04-06T04:31:33;7.15;;;3.88;;
76540;SDS011;65385;55.772;37.658;2023-04-06T04:32:37;7.95;;;4.13;;
76540;SDS011;65385;55.772;37.658;2023-04-06T04:33:40;6.82;;;4.75;;
76540;SDS011;65385;55.772;37.658;2023-04-06T04:34:46;6.75;;;3.80;;
76540;SDS011;65385;55.772;37.658;2023-04-06T04:35:57;6.97;;;4.72;;
76540;SDS011;65385;55.772;37.658;2023-04-06T04:37:00;9.55;;;4.45;;
76540;SDS011;65385;55.772;37.658;2023-04-06T04:38:18;7.28;;;4.00;;
76540;SDS011;65385;55.772;37.658;2023-04-06T04:39:24;6.45;;;3.90;;
76540;SDS011;65385;55.772;37.658;2023-04-06T04:40:32;9.93;;;4.53;;
76540;SDS011;65385;55.772;37.658;2023-04-06T04:41:43;6.20;;;3.92;;
76540;SDS011;65385;55.772;37.658;2023-04-06T04:42:46;13.65;;;5.25;;
76540;SDS011;65385;55.772;37.658;2023-04-06T04:43:53;7.00;;;3.97;;
76540;SDS011;65385;55.772;37.658;2023-04-06T04:44:56;8.98;;;4.57;;
76540;SDS011;65385;55.772;37.658;2023-04-06T04:46:07;7.80;;;3.92;;
76540;SDS011;65385;55.772;37.658;2023-04-06T04:47:12;4.57;;;3.65;;
76540;SDS011;65385;55.772;37.658;2023-04-06T04:48:19;8.55;;;4.15;;
76540;SDS011;65385;55.772;37.658;2023-04-06T04:49:27;7.00;;;4.07;;
76540;SDS011;65385;55.772;37.658;2023-04-06T04:50:28;8.95;;;4.00;;
76540;SDS011;65385;55.772;37.658;2023-04-06T04:51:31;11.38;;;4.70;;
76540;SDS011;65385;55.772;37.658;2023-04-06T04:52:56;6.95;;;3.78;;
76540;SDS011;65385;55.772;37.658;2023-04-06T04:53:59;6.95;;;3.38;;
76540;SDS011;65385;55.772;37.658;2023-04-06T04:55:03;9.65;;;4.30;;
76540;SDS011;65385;55.772;37.658;2023-04-06T04:56:05;10.32;;;3.85;;
76540;SDS011;65385;55.772;37.658;2023-04-06T04:57:06;7.50;;;4.10;;
76540;SDS011;65385;55.772;37.658;2023-04-06T04:58:15;7.15;;;4.13;;
76540;SDS011;65385;55.772;37.658;2023-04-06T04:59:24;6.20;;;3.08;;
76540;SDS011;65385;55.772;37.658;2023-04-06T05:00:31;8.50;;;4.03;;
76540;SDS011;65385;55.772;37.658;2023-04-06T05:01:32;6.43;;;4.10;;
76540;SDS011;65385;55.772;37.658;2023-04-06T05:02:34;5.53;;;3.53;;
76540;SDS011;65385;55.772;37.658;2023-04-06T05:03:48;7.20;;;4.53;;
76540;SDS011;65385;55.772;37.658;2023-04-06T05:04:51;6.43;;;3.97;;
76540;SDS011;65385;55.772;37.658;2023-04-06T05:05:55;9.27;;;4.57;;
76540;SDS011;65385;55.772;37.658;2023-04-06T05:07:05;10.40;;;4.50;;
76540;SDS011;65385;55.772;37.658;2023-04-06T05:08:08;8.38;;;4.45;;
76540;SDS011;65385;55.772;37.658;2023-04-06T05:09:15;5.80;;;3.97;;
76540;SDS011;65385;55.772;37.658;2023-04-06T05:10:17;10.18;;;3.95;;
76540;SDS011;65385;55.772;37.658;2023-04-06T05:11:26;7.80;;;3.97;;
76540;SDS011;65385;55.772;37.658;2023-04-06T05:12:32;4.95;;;3.22;;
76540;SDS011;65385;55.772;37.658;2023-04-06T05:13:38;5.82;;;3.60;;
76540;SDS011;65385;55.772;37.658;2023-04-06T05:14:45;6.47;;;3.72;;
76540;SDS011;65385;55.772;37.658;2023-04-06T05:15:49;7.55;;;3.72;;
76540;SDS011;65385;55.772;37.658;2023-04-06T05:17:08;6.32;;;3.47;;
76540;SDS011;65385;55.772;37.658;2023-04-06T05:18:09;8.35;;;3.88;;
76540;SDS011;65385;55.772;37.658;2023-04-06T05:19:11;8.77;;;3.85;;
76540;SDS011;65385;55.772;37.658;2023-04-06T05:20:16;5.50;;;3.60;;
76540;SDS011;65385;55.772;37.658;2023-04-06T05:21:22;7.70;;;3.35;;
76540;SDS011;65385;55.772;37.658;2023-04-06T05:22:30;9.13;;;4.38;;
76540;SDS011;65385;55.772;37.658;2023-04-06T05:23:39;6.10;;;4.10;;
76540;SDS011;65385;55.772;37.658;2023-04-06T05:24:39;8.75;;;4.32;;
76540;SDS011;65385;55.772;37.658;2023-04-06T05:25:41;7.95;;;3.60;;
76540;SDS011;65385;55.772;37.658;2023-04-06T05:26:50;10.85;;;3.85;;
76540;SDS011;65385;55.772;37.658;2023-04-06T05:27:56;9.95;;;4.20;;
76540;SDS011;65385;55.772;37.658;2023-04-06T05:29:02;7.80;;;3.60;;
76540;SDS011;65385;55.772;37.658;2023-04-06T05:30:07;10.07;;;3.70;;
76540;SDS011;65385;55.772;37.658;2023-04-06T05:31:14;7.38;;;3.63;;
76540;SDS011;65385;55.772;37.658;2023-04-06T05:32:20;10.07;;;4.05;;
76540;SDS011;65385;55.772;37.658;2023-04-06T05:33:26;8.57;;;4.20;;
76540;SDS011;65385;55.772;37.658;2023-04-06T05:34:42;10.40;;;4.13;;
76540;SDS011;65385;55.772;37.658;2023-04-06T05:35:42;6.78;;;3.53;;
76540;SDS011;65385;55.772;37.658;2023-04-06T05:36:46;5.38;;;3.70;;
76540;SDS011;65385;55.772;37.658;2023-04-06T05:37:53;6.07;;;3.80;;
76540;SDS011;65385;55.772;37.658;2023-04-06T05:38:58;7.85;;;3.95;;
76540;SDS011;65385;55.772;37.658;2023-04-06T05:40:21;9.82;;;4.60;;
76540;SDS011;65385;55.772;37.658;2023-04-06T05:41:22;7.78;;;3.58;;
76540;SDS011;65385;55.772;37.658;2023-04-06T05:42:23;7.65;;;4.05;;
76540;SDS011;65385;55.772;37.658;2023-04-06T05:43:27;6.05;;;3.50;;
76540;SDS011;65385;55.772;37.658;2023-04-06T05:44:30;7.78;;;3.50;;
76540;SDS011;65385;55.772;37.658;2023-04-06T05:45:44;8.73;;;3.92;;
76540;SDS011;65385;55.772;37.658;2023-04-06T05:46:45;9.65;;;3.58;;
76540;SDS011;65385;55.772;37.658;2023-04-06T05:47:49;9.18;;;3.60;;
76540;SDS011;65385;55.772;37.658;2023-04-06T05:48:57;7.15;;;3.83;;
76540;SDS011;65385;55.772;37.658;2023-04-06T05:50:01;6.55;;;3.92;;
76540;SDS011;65385;55.772;37.658;2023-04-06T05:51:11;9.45;;;4.35;;
76540;SDS011;65385;55.772;37.658;2023-04-06T05:52:19;7.53;;;4.13;;
76540;SDS011;65385;55.772;37.658;2023-04-06T05:53:22;9.77;;;3.90;;
76540;SDS011;65385;55.772;37.658;2023-04-06T05:54:28;12.13;;;4.53;;
76540;SDS011;65385;55.772;37.658;2023-04-06T05:55:33;9.40;;;4.18;;
76540;SDS011;65385;55.772;37.658;2023-04-06T05:56:43;7.95;;;3.58;;
76540;SDS011;65385;55.772;37.658;2023-04-06T05:57:45;7.18;;;3.58;;
76540;SDS011;65385;55.772;37.658;2023-04-06T05:58:49;6.68;;;3.90;;
76540;SDS011;65385;55.772;37.658;2023-04-06T05:59:56;6.60;;;3.42;;
76540;SDS011;65385;55.772;37.658;2023-04-06T06:01:01;7.70;;;4.13;;
76540;SDS011;65385;55.772;37.658;2023-04-06T06:02:11;7.07;;;4.00;;
76540;SDS011;65385;55.772;37.658;2023-04-06T06:03:15;10.80;;;4.10;;
76540;SDS011;65385;55.772;37.658;2023-04-06T06:04:21;7.80;;;4.68;;
76540;SDS011;65385;55.772;37.658;2023-04-06T06:05:24;9.18;;;3.72;;
76540;SDS011;65385;55.772;37.658;2023-04-06T06:06:26;9.75;;;3.80;;
76540;SDS011;65385;55.772;37.658;2023-04-06T06:07:42;4.55;;;3.35;;
76540;SDS011;65385;55.772;37.658;2023-04-06T06:08:44;8.60;;;4.07;;
76540;SDS011;65385;55.772;37.658;2023-04-06T06:09:48;7.85;;;4.05;;
76540;SDS011;65385;55.772;37.658;2023-04-06T06:10:57;8.13;;;3.70;;
76540;SDS011;65385;55.772;37.658;2023-04-06T06:11:59;8.98;;;4.57;;
76540;SDS011;65385;55.772;37.658;2023-04-06T06:13:01;10.98;;;4.30;;
76540;SDS011;65385;55.772;37.658;2023-04-06T06:14:02;6.38;;;4.22;;
76540;SDS011;65385;55.772;37.658;2023-04-06T06:15:05;5.90;;;3.83;;
76540;SDS011;65385;55.772;37.658;2023-04-06T06:16:10;7.68;;;3.70;;
76540;SDS011;65385;55.772;37.658;2023-04-06T06:17:17;7.13;;;3.60;;
76540;SDS011;65385;55.772;37.658;2023-04-06T06:18:20;6.47;;;3.92;;